sensor_id;sensor_type;location;lat;lon;timestamp;temperature;humidity
19652;DHT22;9974;52.146;14.668;2022-08-19T00:01:51;22.00;99.90
19652;DHT22;9974;52.146;14.668;2022-08-19T00:04:23;22.00;99.90
19652;DHT22;9974;52.146;14.668;2022-08-19T00:09:19;22.10;99.90
19652;DHT22;9974;52.146;14.668;2022-08-19T00:11:45;21.70;99.90
19652;DHT22;9974;52.146;14.668;2022-08-19T00:14:13;21.90;99.90
19652;DHT22;9974;52.146;14.668;2022-08-19T00:16:41;21.90;99.90
19652;DHT22;9974;52.146;14.668;2022-08-19T00:19:10;22.00;99.90
19652;DHT22;9974;52.146;14.668;2022-08-19T00:21:36;21.80;99.90
19652;DHT22;9974;52.146;14.668;2022-08-19T00:24:06;21.80;99.90
19652;DHT22;9974;52.146;14.668;2022-08-19T00:26:32;21.90;99.90
19652;DHT22;9974;52.146;14.668;2022-08-19T00:33:53;21.70;99.90
19652;DHT22;9974;52.146;14.668;2022-08-19T00:41:18;21.70;99.90
19652;DHT22;9974;52.146;14.668;2022-08-19T00:44:10;21.60;99.90
19652;DHT22;9974;52.146;14.668;2022-08-19T00:46:40;21.50;99.90
19652;DHT22;9974;52.146;14.668;2022-08-19T00:49:35;21.10;99.90
19652;DHT22;9974;52.146;14.668;2022-08-19T00:52:07;21.50;99.90
19652;DHT22;9974;52.146;14.668;2022-08-19T00:54:38;21.50;99.90
19652;DHT22;9974;52.146;14.668;2022-08-19T00:57:08;21.50;99.90
19652;DHT22;9974;52.146;14.668;2022-08-19T00:59:36;21.30;99.90
19652;DHT22;9974;52.146;14.668;2022-08-19T01:02:04;21.60;99.90
19652;DHT22;9974;52.146;14.668;2022-08-19T01:06:56;21.30;99.90
19652;DHT22;9974;52.146;14.668;2022-08-19T01:09:22;21.70;99.90
19652;DHT22;9974;52.146;14.668;2022-08-19T01:11:48;21.40;99.90
19652;DHT22;9974;52.146;14.668;2022-08-19T01:14:15;21.50;99.90
19652;DHT22;9974;52.146;14.668;2022-08-19T01:16:43;21.50;99.90
19652;DHT22;9974;52.146;14.668;2022-08-19T01:19:18;21.60;99.90
19652;DHT22;9974;52.146;14.668;2022-08-19T01:22:00;21.60;99.90
19652;DHT22;9974;52.146;14.668;2022-08-19T01:24:29;21.40;99.90
19652;DHT22;9974;52.146;14.668;2022-08-19T01:26:56;21.30;99.90
19652;DHT22;9974;52.146;14.668;2022-08-19T01:29:22;21.20;99.90
19652;DHT22;9974;52.146;14.668;2022-08-19T01:31:48;21.40;99.90
19652;DHT22;9974;52.146;14.668;2022-08-19T01:36:45;21.40;99.90
19652;DHT22;9974;52.146;14.668;2022-08-19T01:39:16;21.70;99.90
19652;DHT22;9974;52.146;14.668;2022-08-19T01:44:11;21.50;99.90
19652;DHT22;9974;52.146;14.668;2022-08-19T01:46:37;21.50;99.90
19652;DHT22;9974;52.146;14.668;2022-08-19T01:49:04;21.90;99.90
19652;DHT22;9974;52.146;14.668;2022-08-19T01:51:31;21.30;99.90
19652;DHT22;9974;52.146;14.668;2022-08-19T01:53:57;21.60;99.90
19652;DHT22;9974;52.146;14.668;2022-08-19T01:56:24;21.60;99.90
19652;DHT22;9974;52.146;14.668;2022-08-19T01:58:54;21.30;99.90
19652;DHT22;9974;52.146;14.668;2022-08-19T02:01:21;21.60;99.90
19652;DHT22;9974;52.146;14.668;2022-08-19T02:03:48;21.40;99.90
19652;DHT22;9974;52.146;14.668;2022-08-19T02:06:14;21.00;99.90
19652;DHT22;9974;52.146;14.668;2022-08-19T02:08:42;21.30;99.90
19652;DHT22;9974;52.146;14.668;2022-08-19T02:11:21;21.40;99.90
19652;DHT22;9974;52.146;14.668;2022-08-19T02:13:49;21.30;99.90
19652;DHT22;9974;52.146;14.668;2022-08-19T02:16:17;21.20;99.90
19652;DHT22;9974;52.146;14.668;2022-08-19T02:18:43;21.40;99.90
19652;DHT22;9974;52.146;14.668;2022-08-19T02:21:09;21.20;99.90
19652;DHT22;9974;52.146;14.668;2022-08-19T02:23:36;21.30;99.90
19652;DHT22;9974;52.146;14.668;2022-08-19T02:26:01;21.30;99.90
19652;DHT22;9974;52.146;14.668;2022-08-19T02:28:27;21.20;99.90
19652;DHT22;9974;52.146;14.668;2022-08-19T02:35:45;21.50;99.90
19652;DHT22;9974;52.146;14.668;2022-08-19T02:38:12;21.30;99.90
19652;DHT22;9974;52.146;14.668;2022-08-19T02:40:53;21.50;99.90
19652;DHT22;9974;52.146;14.668;2022-08-19T02:43:24;21.50;99.90
19652;DHT22;9974;52.146;14.668;2022-08-19T02:45:51;21.30;99.90
19652;DHT22;9974;52.146;14.668;2022-08-19T02:48:19;21.40;99.90
19652;DHT22;9974;52.146;14.668;2022-08-19T02:53:12;21.30;99.90
19652;DHT22;9974;52.146;14.668;2022-08-19T02:55:46;21.50;99.90
19652;DHT22;9974;52.146;14.668;2022-08-19T02:58:13;21.40;99.90
19652;DHT22;9974;52.146;14.668;2022-08-19T03:00:49;21.50;99.90
19652;DHT22;9974;52.146;14.668;2022-08-19T03:03:18;21.60;99.90
19652;DHT22;9974;52.146;14.668;2022-08-19T03:08:11;21.50;99.90
19652;DHT22;9974;52.146;14.668;2022-08-19T03:10:43;21.70;99.90
19652;DHT22;9974;52.146;14.668;2022-08-19T03:13:16;21.50;99.90
19652;DHT22;9974;52.146;14.668;2022-08-19T03:15:45;21.50;99.90
19652;DHT22;9974;52.146;14.668;2022-08-19T03:18:12;21.40;99.90
19652;DHT22;9974;52.146;14.668;2022-08-19T03:20:47;21.40;99.90
19652;DHT22;9974;52.146;14.668;2022-08-19T03:23:14;21.20;99.90
19652;DHT22;9974;52.146;14.668;2022-08-19T03:25:43;21.40;99.90
19652;DHT22;9974;52.146;14.668;2022-08-19T03:28:11;21.60;99.90
19652;DHT22;9974;52.146;14.668;2022-08-19T03:30:38;21.00;99.90
19652;DHT22;9974;52.146;14.668;2022-08-19T03:33:07;21.20;99.90
19652;DHT22;9974;52.146;14.668;2022-08-19T03:35:34;21.00;99.90
19652;DHT22;9974;52.146;14.668;2022-08-19T03:38:03;20.90;99.90
19652;DHT22;9974;52.146;14.668;2022-08-19T03:40:29;21.40;99.90
19652;DHT22;9974;52.146;14.668;2022-08-19T03:42:56;21.10;99.90
19652;DHT22;9974;52.146;14.668;2022-08-19T03:45:23;21.30;99.90
19652;DHT22;9974;52.146;14.668;2022-08-19T03:50:15;20.90;99.90
19652;DHT22;9974;52.146;14.668;2022-08-19T03:55:07;21.30;99.90
19652;DHT22;9974;52.146;14.668;2022-08-19T03:57:33;20.80;99.90
19652;DHT22;9974;52.146;14.668;2022-08-19T04:04:53;21.00;99.90
19652;DHT22;9974;52.146;14.668;2022-08-19T04:07:20;20.70;99.90
19652;DHT22;9974;52.146;14.668;2022-08-19T04:12:13;21.20;99.90
19652;DHT22;9974;52.146;14.668;2022-08-19T04:14:39;21.00;99.90
19652;DHT22;9974;52.146;14.668;2022-08-19T04:19:32;21.20;99.90
19652;DHT22;9974;52.146;14.668;2022-08-19T04:21:59;21.80;99.90
19652;DHT22;9974;52.146;14.668;2022-08-19T04:24:24;21.10;99.90
19652;DHT22;9974;52.146;14.668;2022-08-19T04:26:51;21.20;99.90
19652;DHT22;9974;52.146;14.668;2022-08-19T04:29:20;21.20;99.90
19652;DHT22;9974;52.146;14.668;2022-08-19T04:34:19;21.30;99.90
19652;DHT22;9974;52.146;14.668;2022-08-19T04:36:47;21.00;99.90
19652;DHT22;9974;52.146;14.668;2022-08-19T04:39:18;21.10;99.90
19652;DHT22;9974;52.146;14.668;2022-08-19T04:41:45;21.50;99.90
19652;DHT22;9974;52.146;14.668;2022-08-19T04:44:35;21.30;99.90
19652;DHT22;9974;52.146;14.668;2022-08-19T04:47:02;21.30;99.90
19652;DHT22;9974;52.146;14.668;2022-08-19T04:54:24;21.10;99.90
19652;DHT22;9974;52.146;14.668;2022-08-19T04:56:52;21.30;99.90
19652;DHT22;9974;52.146;14.668;2022-08-19T04:59:19;21.20;99.90
19652;DHT22;9974;52.146;14.668;2022-08-19T05:01:46;21.10;99.90
19652;DHT22;9974;52.146;14.668;2022-08-19T05:04:17;21.20;99.90
19652;DHT22;9974;52.146;14.668;2022-08-19T05:09:10;21.30;99.90
19652;DHT22;9974;52.146;14.668;2022-08-19T05:11:37;21.30;99.90
19652;DHT22;9974;52.146;14.668;2022-08-19T05:16:31;21.40;99.90
19652;DHT22;9974;52.146;14.668;2022-08-19T05:18:57;21.00;99.90
19652;DHT22;9974;52.146;14.668;2022-08-19T05:21:42;21.30;99.90
19652;DHT22;9974;52.146;14.668;2022-08-19T05:24:28;21.30;99.90
19652;DHT22;9974;52.146;14.668;2022-08-19T05:26:55;21.20;99.90
19652;DHT22;9974;52.146;14.668;2022-08-19T05:29:26;21.40;99.90
19652;DHT22;9974;52.146;14.668;2022-08-19T05:31:54;21.40;99.90
19652;DHT22;9974;52.146;14.668;2022-08-19T05:34:22;21.10;99.90
19652;DHT22;9974;52.146;14.668;2022-08-19T05:36:55;21.30;99.90
19652;DHT22;9974;52.146;14.668;2022-08-19T05:39:28;21.30;99.90
19652;DHT22;9974;52.146;14.668;2022-08-19T05:42:01;21.70;99.90
19652;DHT22;9974;52.146;14.668;2022-08-19T05:44:31;21.30;99.90
19652;DHT22;9974;52.146;14.668;2022-08-19T05:46:59;21.60;99.90
19652;DHT22;9974;52.146;14.668;2022-08-19T05:49:26;21.80;99.90
19652;DHT22;9974;52.146;14.668;2022-08-19T05:51:52;21.60;99.90
19652;DHT22;9974;52.146;14.668;2022-08-19T05:54:20;21.30;99.90
19652;DHT22;9974;52.146;14.668;2022-08-19T05:59:14;22.10;99.90
19652;DHT22;9974;52.146;14.668;2022-08-19T06:01:43;21.50;99.90
19652;DHT22;9974;52.146;14.668;2022-08-19T06:04:10;21.50;99.90
19652;DHT22;9974;52.146;14.668;2022-08-19T06:09:05;21.60;99.90
19652;DHT22;9974;52.146;14.668;2022-08-19T06:11:37;21.60;99.90
19652;DHT22;9974;52.146;14.668;2022-08-19T06:14:14;21.60;99.90
19652;DHT22;9974;52.146;14.668;2022-08-19T06:19:11;21.70;99.90
19652;DHT22;9974;52.146;14.668;2022-08-19T06:21:44;21.70;99.90
19652;DHT22;9974;52.146;14.668;2022-08-19T06:24:17;21.80;99.90
19652;DHT22;9974;52.146;14.668;2022-08-19T06:29:17;21.70;99.90
19652;DHT22;9974;52.146;14.668;2022-08-19T06:31:46;22.20;99.90
19652;DHT22;9974;52.146;14.668;2022-08-19T06:34:15;22.00;99.90
19652;DHT22;9974;52.146;14.668;2022-08-19T06:36:44;21.90;99.90
19652;DHT22;9974;52.146;14.668;2022-08-19T06:39:18;21.90;99.90
19652;DHT22;9974;52.146;14.668;2022-08-19T06:41:48;22.00;99.90
19652;DHT22;9974;52.146;14.668;2022-08-19T06:44:15;22.10;99.90
19652;DHT22;9974;52.146;14.668;2022-08-19T06:46:42;22.40;99.90
19652;DHT22;9974;52.146;14.668;2022-08-19T06:49:08;22.10;99.90
19652;DHT22;9974;52.146;14.668;2022-08-19T06:54:05;22.20;99.90
19652;DHT22;9974;52.146;14.668;2022-08-19T06:56:31;22.10;99.90
19652;DHT22;9974;52.146;14.668;2022-08-19T06:59:07;22.10;99.90
19652;DHT22;9974;52.146;14.668;2022-08-19T07:01:35;22.20;99.90
19652;DHT22;9974;52.146;14.668;2022-08-19T07:04:03;22.10;99.90
19652;DHT22;9974;52.146;14.668;2022-08-19T07:08:57;22.30;99.90
19652;DHT22;9974;52.146;14.668;2022-08-19T07:16:17;22.50;99.90
19652;DHT22;9974;52.146;14.668;2022-08-19T07:18:48;22.70;99.90
19652;DHT22;9974;52.146;14.668;2022-08-19T07:21:27;22.60;99.90
19652;DHT22;9974;52.146;14.668;2022-08-19T07:23:58;22.90;99.90
19652;DHT22;9974;52.146;14.668;2022-08-19T07:26:28;22.90;99.90
19652;DHT22;9974;52.146;14.668;2022-08-19T07:28:56;23.00;99.90
19652;DHT22;9974;52.146;14.668;2022-08-19T07:31:24;23.00;99.90
19652;DHT22;9974;52.146;14.668;2022-08-19T07:33:52;23.00;99.90
19652;DHT22;9974;52.146;14.668;2022-08-19T07:36:22;23.20;99.90
19652;DHT22;9974;52.146;14.668;2022-08-19T07:38:50;23.10;99.90
19652;DHT22;9974;52.146;14.668;2022-08-19T07:41:22;23.30;99.90
19652;DHT22;9974;52.146;14.668;2022-08-19T07:43:49;23.50;99.90
19652;DHT22;9974;52.146;14.668;2022-08-19T07:46:16;23.40;99.90
19652;DHT22;9974;52.146;14.668;2022-08-19T07:48:44;23.30;99.90
19652;DHT22;9974;52.146;14.668;2022-08-19T07:56:05;23.70;99.90
19652;DHT22;9974;52.146;14.668;2022-08-19T07:58:36;23.70;99.90
19652;DHT22;9974;52.146;14.668;2022-08-19T08:01:06;23.90;99.90
19652;DHT22;9974;52.146;14.668;2022-08-19T08:03:36;24.10;99.90
19652;DHT22;9974;52.146;14.668;2022-08-19T08:09:06;24.30;99.90
19652;DHT22;9974;52.146;14.668;2022-08-19T08:11:55;25.00;99.90
19652;DHT22;9974;52.146;14.668;2022-08-19T08:14:36;24.70;99.90
19652;DHT22;9974;52.146;14.668;2022-08-19T08:17:05;24.80;99.90
19652;DHT22;9974;52.146;14.668;2022-08-19T08:19:32;25.00;99.90
19652;DHT22;9974;52.146;14.668;2022-08-19T08:21:59;25.20;99.90
19652;DHT22;9974;52.146;14.668;2022-08-19T08:24:28;25.30;99.90
19652;DHT22;9974;52.146;14.668;2022-08-19T08:26:57;25.40;99.90
19652;DHT22;9974;52.146;14.668;2022-08-19T08:34:20;25.60;99.90
19652;DHT22;9974;52.146;14.668;2022-08-19T08:36:46;25.50;99.90
19652;DHT22;9974;52.146;14.668;2022-08-19T08:39:17;25.50;99.90
19652;DHT22;9974;52.146;14.668;2022-08-19T08:42:11;25.40;99.90
19652;DHT22;9974;52.146;14.668;2022-08-19T08:44:59;25.20;99.90
19652;DHT22;9974;52.146;14.668;2022-08-19T08:47:32;25.30;99.90
19652;DHT22;9974;52.146;14.668;2022-08-19T08:50:16;25.50;99.90
19652;DHT22;9974;52.146;14.668;2022-08-19T08:52:47;25.30;99.90
19652;DHT22;9974;52.146;14.668;2022-08-19T08:55:21;25.30;99.90
19652;DHT22;9974;52.146;14.668;2022-08-19T09:00:27;25.10;99.90
19652;DHT22;9974;52.146;14.668;2022-08-19T09:02:56;25.40;99.90
19652;DHT22;9974;52.146;14.668;2022-08-19T09:05:24;25.00;99.90
19652;DHT22;9974;52.146;14.668;2022-08-19T09:08:03;25.00;99.90
19652;DHT22;9974;52.146;14.668;2022-08-19T09:10:48;25.20;99.90
19652;DHT22;9974;52.146;14.668;2022-08-19T09:13:39;25.20;99.90
19652;DHT22;9974;52.146;14.668;2022-08-19T09:16:14;25.20;99.90
19652;DHT22;9974;52.146;14.668;2022-08-19T09:18:45;25.10;99.90
19652;DHT22;9974;52.146;14.668;2022-08-19T09:21:18;25.10;99.90
19652;DHT22;9974;52.146;14.668;2022-08-19T09:26:15;25.00;99.90
19652;DHT22;9974;52.146;14.668;2022-08-19T09:28:46;25.00;99.90
19652;DHT22;9974;52.146;14.668;2022-08-19T09:31:15;24.80;99.90
19652;DHT22;9974;52.146;14.668;2022-08-19T09:36:12;24.60;99.90
19652;DHT22;9974;52.146;14.668;2022-08-19T09:41:14;24.50;99.90
19652;DHT22;9974;52.146;14.668;2022-08-19T09:43:44;24.70;99.90
19652;DHT22;9974;52.146;14.668;2022-08-19T09:46:11;24.80;99.90
19652;DHT22;9974;52.146;14.668;2022-08-19T09:48:40;24.80;99.90
19652;DHT22;9974;52.146;14.668;2022-08-19T09:53:35;24.90;99.90
19652;DHT22;9974;52.146;14.668;2022-08-19T09:56:02;24.60;99.90
19652;DHT22;9974;52.146;14.668;2022-08-19T10:00:59;24.90;99.90
19652;DHT22;9974;52.146;14.668;2022-08-19T10:03:26;24.80;99.90
19652;DHT22;9974;52.146;14.668;2022-08-19T10:05:53;24.80;99.90
19652;DHT22;9974;52.146;14.668;2022-08-19T10:08:22;24.70;99.90
19652;DHT22;9974;52.146;14.668;2022-08-19T10:13:20;24.90;99.90
19652;DHT22;9974;52.146;14.668;2022-08-19T10:15:50;25.00;99.90
19652;DHT22;9974;52.146;14.668;2022-08-19T10:18:22;24.90;99.90
19652;DHT22;9974;52.146;14.668;2022-08-19T10:20:50;24.90;99.90
19652;DHT22;9974;52.146;14.668;2022-08-19T10:23:19;24.90;99.90
19652;DHT22;9974;52.146;14.668;2022-08-19T10:30:39;24.70;99.90
19652;DHT22;9974;52.146;14.668;2022-08-19T10:33:05;24.70;99.90
19652;DHT22;9974;52.146;14.668;2022-08-19T10:35:32;24.70;99.90
19652;DHT22;9974;52.146;14.668;2022-08-19T10:40:25;24.90;99.90
19652;DHT22;9974;52.146;14.668;2022-08-19T10:42:52;25.00;99.90
19652;DHT22;9974;52.146;14.668;2022-08-19T10:47:48;25.20;99.90
19652;DHT22;9974;52.146;14.668;2022-08-19T10:53:04;25.40;99.90
19652;DHT22;9974;52.146;14.668;2022-08-19T10:55:33;25.50;99.90
19652;DHT22;9974;52.146;14.668;2022-08-19T10:58:19;25.70;99.90
19652;DHT22;9974;52.146;14.668;2022-08-19T11:00:55;25.80;99.90
19652;DHT22;9974;52.146;14.668;2022-08-19T11:03:22;25.80;99.90
19652;DHT22;9974;52.146;14.668;2022-08-19T11:06:07;25.70;99.90
19652;DHT22;9974;52.146;14.668;2022-08-19T11:08:33;25.60;99.90
19652;DHT22;9974;52.146;14.668;2022-08-19T11:11:01;25.60;99.90
19652;DHT22;9974;52.146;14.668;2022-08-19T11:13:33;25.70;99.90
19652;DHT22;9974;52.146;14.668;2022-08-19T11:16:08;25.30;99.90
19652;DHT22;9974;52.146;14.668;2022-08-19T11:18:37;25.10;99.90
19652;DHT22;9974;52.146;14.668;2022-08-19T11:26:09;25.30;99.90
19652;DHT22;9974;52.146;14.668;2022-08-19T11:28:35;25.30;99.90
19652;DHT22;9974;52.146;14.668;2022-08-19T11:35:58;25.30;99.90
19652;DHT22;9974;52.146;14.668;2022-08-19T11:40:59;25.50;99.90
19652;DHT22;9974;52.146;14.668;2022-08-19T11:45:54;26.00;99.90
19652;DHT22;9974;52.146;14.668;2022-08-19T11:50:48;25.80;99.90
19652;DHT22;9974;52.146;14.668;2022-08-19T11:53:18;25.80;99.90
19652;DHT22;9974;52.146;14.668;2022-08-19T11:55:46;25.70;99.90
19652;DHT22;9974;52.146;14.668;2022-08-19T11:58:13;25.60;99.90
19652;DHT22;9974;52.146;14.668;2022-08-19T12:00:40;25.40;99.90
19652;DHT22;9974;52.146;14.668;2022-08-19T12:03:07;25.50;99.90
19652;DHT22;9974;52.146;14.668;2022-08-19T12:05:33;25.40;99.90
19652;DHT22;9974;52.146;14.668;2022-08-19T12:08:02;25.50;99.90
19652;DHT22;9974;52.146;14.668;2022-08-19T12:12:53;25.50;99.90
19652;DHT22;9974;52.146;14.668;2022-08-19T12:17:45;25.40;99.90
19652;DHT22;9974;52.146;14.668;2022-08-19T12:20:12;25.40;99.90
19652;DHT22;9974;52.146;14.668;2022-08-19T12:22:41;25.40;99.90
19652;DHT22;9974;52.146;14.668;2022-08-19T12:25:10;25.40;99.90
19652;DHT22;9974;52.146;14.668;2022-08-19T12:27:37;25.00;99.90
19652;DHT22;9974;52.146;14.668;2022-08-19T12:30:06;25.10;99.90
19652;DHT22;9974;52.146;14.668;2022-08-19T12:32:34;25.30;99.90
19652;DHT22;9974;52.146;14.668;2022-08-19T12:44:47;24.50;99.90
19652;DHT22;9974;52.146;14.668;2022-08-19T12:49:40;24.50;99.90
19652;DHT22;9974;52.146;14.668;2022-08-19T12:52:08;24.50;99.90
19652;DHT22;9974;52.146;14.668;2022-08-19T12:54:37;24.50;99.90
19652;DHT22;9974;52.146;14.668;2022-08-19T12:57:07;24.40;99.90
19652;DHT22;9974;52.146;14.668;2022-08-19T12:59:38;24.30;99.90
19652;DHT22;9974;52.146;14.668;2022-08-19T13:02:05;24.50;99.90
19652;DHT22;9974;52.146;14.668;2022-08-19T13:04:32;24.50;99.90
19652;DHT22;9974;52.146;14.668;2022-08-19T13:07:01;24.50;99.90
19652;DHT22;9974;52.146;14.668;2022-08-19T13:09:27;24.80;99.90
19652;DHT22;9974;52.146;14.668;2022-08-19T13:11:52;24.90;99.90
19652;DHT22;9974;52.146;14.668;2022-08-19T13:21:38;24.90;99.90
19652;DHT22;9974;52.146;14.668;2022-08-19T13:24:04;24.70;99.90
19652;DHT22;9974;52.146;14.668;2022-08-19T13:31:41;24.80;99.90
19652;DHT22;9974;52.146;14.668;2022-08-19T13:34:32;24.90;99.90
19652;DHT22;9974;52.146;14.668;2022-08-19T13:37:00;25.30;99.90
19652;DHT22;9974;52.146;14.668;2022-08-19T13:41:55;25.70;99.90
19652;DHT22;9974;52.146;14.668;2022-08-19T13:44:21;25.60;99.90
19652;DHT22;9974;52.146;14.668;2022-08-19T13:46:47;25.70;99.90
19652;DHT22;9974;52.146;14.668;2022-08-19T13:49:15;25.60;99.90
19652;DHT22;9974;52.146;14.668;2022-08-19T13:51:42;25.60;99.90
19652;DHT22;9974;52.146;14.668;2022-08-19T13:54:09;25.50;99.90
19652;DHT22;9974;52.146;14.668;2022-08-19T13:56:40;25.40;99.90
19652;DHT22;9974;52.146;14.668;2022-08-19T13:59:07;25.60;99.90
19652;DHT22;9974;52.146;14.668;2022-08-19T14:06:26;25.70;99.90
19652;DHT22;9974;52.146;14.668;2022-08-19T14:16:12;26.20;99.90
19652;DHT22;9974;52.146;14.668;2022-08-19T14:18:39;26.30;99.90
19652;DHT22;9974;52.146;14.668;2022-08-19T14:21:05;26.10;99.90
19652;DHT22;9974;52.146;14.668;2022-08-19T14:23:32;26.30;99.90
19652;DHT22;9974;52.146;14.668;2022-08-19T14:26:10;26.40;99.90
19652;DHT22;9974;52.146;14.668;2022-08-19T14:28:37;26.30;99.90
19652;DHT22;9974;52.146;14.668;2022-08-19T14:31:06;26.10;99.90
19652;DHT22;9974;52.146;14.668;2022-08-19T14:33:32;25.90;99.90
19652;DHT22;9974;52.146;14.668;2022-08-19T14:35:57;26.00;99.90
19652;DHT22;9974;52.146;14.668;2022-08-19T14:38:25;26.00;99.90
19652;DHT22;9974;52.146;14.668;2022-08-19T14:43:17;26.30;99.90
19652;DHT22;9974;52.146;14.668;2022-08-19T14:48:09;26.10;99.90
19652;DHT22;9974;52.146;14.668;2022-08-19T14:53:05;26.00;99.90
19652;DHT22;9974;52.146;14.668;2022-08-19T14:55:34;25.90;99.90
19652;DHT22;9974;52.146;14.668;2022-08-19T14:58:01;25.70;99.90
19652;DHT22;9974;52.146;14.668;2022-08-19T15:07:46;25.70;99.90
19652;DHT22;9974;52.146;14.668;2022-08-19T15:10:13;25.60;99.90
19652;DHT22;9974;52.146;14.668;2022-08-19T15:12:39;25.90;99.90
19652;DHT22;9974;52.146;14.668;2022-08-19T15:15:07;25.70;99.90
19652;DHT22;9974;52.146;14.668;2022-08-19T15:20:06;25.80;99.90
19652;DHT22;9974;52.146;14.668;2022-08-19T15:22:33;25.70;99.90
19652;DHT22;9974;52.146;14.668;2022-08-19T15:27:26;25.60;99.90
19652;DHT22;9974;52.146;14.668;2022-08-19T15:34:44;25.30;99.90
19652;DHT22;9974;52.146;14.668;2022-08-19T15:37:13;25.40;99.90
19652;DHT22;9974;52.146;14.668;2022-08-19T15:39:39;25.20;99.90
19652;DHT22;9974;52.146;14.668;2022-08-19T15:42:05;24.90;99.90
19652;DHT22;9974;52.146;14.668;2022-08-19T15:54:20;24.70;99.90
19652;DHT22;9974;52.146;14.668;2022-08-19T15:56:47;24.70;99.90
19652;DHT22;9974;52.146;14.668;2022-08-19T15:59:33;24.50;99.90
19652;DHT22;9974;52.146;14.668;2022-08-19T16:02:21;24.40;99.90
19652;DHT22;9974;52.146;14.668;2022-08-19T16:05:10;24.60;99.90
19652;DHT22;9974;52.146;14.668;2022-08-19T16:12:48;24.50;99.90
19652;DHT22;9974;52.146;14.668;2022-08-19T16:17:41;24.20;99.90
19652;DHT22;9974;52.146;14.668;2022-08-19T16:20:09;24.50;99.90
19652;DHT22;9974;52.146;14.668;2022-08-19T16:22:36;24.20;99.90
19652;DHT22;9974;52.146;14.668;2022-08-19T16:25:03;24.20;99.90
19652;DHT22;9974;52.146;14.668;2022-08-19T16:29:56;24.00;99.90
19652;DHT22;9974;52.146;14.668;2022-08-19T16:34:48;24.30;99.90
19652;DHT22;9974;52.146;14.668;2022-08-19T16:37:15;23.90;99.90
19652;DHT22;9974;52.146;14.668;2022-08-19T16:39:41;23.80;99.90
19652;DHT22;9974;52.146;14.668;2022-08-19T16:42:08;23.90;99.90
19652;DHT22;9974;52.146;14.668;2022-08-19T16:44:35;24.10;99.90
19652;DHT22;9974;52.146;14.668;2022-08-19T17:01:41;23.90;99.90
19652;DHT22;9974;52.146;14.668;2022-08-19T17:06:35;23.50;99.90
19652;DHT22;9974;52.146;14.668;2022-08-19T17:09:03;23.50;99.90
19652;DHT22;9974;52.146;14.668;2022-08-19T17:13:59;23.50;99.90
19652;DHT22;9974;52.146;14.668;2022-08-19T17:16:27;23.50;99.90
19652;DHT22;9974;52.146;14.668;2022-08-19T17:18:57;23.60;99.90
19652;DHT22;9974;52.146;14.668;2022-08-19T17:21:27;23.60;99.90
19652;DHT22;9974;52.146;14.668;2022-08-19T17:26:23;23.70;99.90
19652;DHT22;9974;52.146;14.668;2022-08-19T17:28:51;23.50;99.90
19652;DHT22;9974;52.146;14.668;2022-08-19T17:31:20;23.50;99.90
19652;DHT22;9974;52.146;14.668;2022-08-19T17:33:47;23.40;99.90
19652;DHT22;9974;52.146;14.668;2022-08-19T17:36:15;23.30;99.90
19652;DHT22;9974;52.146;14.668;2022-08-19T17:38:41;23.90;99.90
19652;DHT22;9974;52.146;14.668;2022-08-19T17:41:08;23.30;99.90
19652;DHT22;9974;52.146;14.668;2022-08-19T17:43:35;23.40;99.90
19652;DHT22;9974;52.146;14.668;2022-08-19T17:46:03;23.20;99.90
19652;DHT22;9974;52.146;14.668;2022-08-19T17:48:33;23.00;99.90
19652;DHT22;9974;52.146;14.668;2022-08-19T17:51:16;23.20;99.90
19652;DHT22;9974;52.146;14.668;2022-08-19T17:58:38;22.90;99.90
19652;DHT22;9974;52.146;14.668;2022-08-19T18:01:10;23.30;99.90
19652;DHT22;9974;52.146;14.668;2022-08-19T18:03:38;23.00;99.90
19652;DHT22;9974;52.146;14.668;2022-08-19T18:06:05;22.90;99.90
19652;DHT22;9974;52.146;14.668;2022-08-19T18:08:31;23.50;99.90
19652;DHT22;9974;52.146;14.668;2022-08-19T18:10:58;22.80;99.90
19652;DHT22;9974;52.146;14.668;2022-08-19T18:13:24;23.50;99.90
19652;DHT22;9974;52.146;14.668;2022-08-19T18:18:16;22.60;99.90
19652;DHT22;9974;52.146;14.668;2022-08-19T18:20:42;22.80;99.90
19652;DHT22;9974;52.146;14.668;2022-08-19T18:23:08;22.70;99.90
19652;DHT22;9974;52.146;14.668;2022-08-19T18:28:00;22.60;99.90
19652;DHT22;9974;52.146;14.668;2022-08-19T18:30:29;22.70;99.90
19652;DHT22;9974;52.146;14.668;2022-08-19T18:32:59;23.00;99.90
19652;DHT22;9974;52.146;14.668;2022-08-19T18:35:28;22.60;99.90
19652;DHT22;9974;52.146;14.668;2022-08-19T18:37:59;22.60;99.90
19652;DHT22;9974;52.146;14.668;2022-08-19T18:40:27;22.60;99.90
19652;DHT22;9974;52.146;14.668;2022-08-19T18:43:13;22.60;99.90
19652;DHT22;9974;52.146;14.668;2022-08-19T18:45:48;22.30;99.90
19652;DHT22;9974;52.146;14.668;2022-08-19T18:48:32;23.00;99.90
19652;DHT22;9974;52.146;14.668;2022-08-19T18:51:17;22.50;99.90
19652;DHT22;9974;52.146;14.668;2022-08-19T18:53:45;22.50;99.90
19652;DHT22;9974;52.146;14.668;2022-08-19T18:56:13;22.30;99.90
19652;DHT22;9974;52.146;14.668;2022-08-19T18:58:41;22.60;99.90
19652;DHT22;9974;52.146;14.668;2022-08-19T19:01:28;23.00;99.90
19652;DHT22;9974;52.146;14.668;2022-08-19T19:04:00;22.60;99.90
19652;DHT22;9974;52.146;14.668;2022-08-19T19:06:34;22.50;99.90
19652;DHT22;9974;52.146;14.668;2022-08-19T19:11:37;22.80;99.90
19652;DHT22;9974;52.146;14.668;2022-08-19T19:14:06;22.40;99.90
19652;DHT22;9974;52.146;14.668;2022-08-19T19:16:37;22.50;99.90
19652;DHT22;9974;52.146;14.668;2022-08-19T19:19:04;22.90;99.90
19652;DHT22;9974;52.146;14.668;2022-08-19T19:21:33;22.10;99.90
19652;DHT22;9974;52.146;14.668;2022-08-19T19:24:00;22.10;99.90
19652;DHT22;9974;52.146;14.668;2022-08-19T19:26:27;22.10;99.90
19652;DHT22;9974;52.146;14.668;2022-08-19T19:31:25;22.20;99.90
19652;DHT22;9974;52.146;14.668;2022-08-19T19:33:52;22.20;99.90
19652;DHT22;9974;52.146;14.668;2022-08-19T19:36:18;22.30;99.90
19652;DHT22;9974;52.146;14.668;2022-08-19T19:38:44;22.30;99.90
19652;DHT22;9974;52.146;14.668;2022-08-19T19:41:11;22.10;99.90
19652;DHT22;9974;52.146;14.668;2022-08-19T19:53:24;21.90;99.90
19652;DHT22;9974;52.146;14.668;2022-08-19T19:55:52;21.80;99.90
19652;DHT22;9974;52.146;14.668;2022-08-19T19:58:20;21.80;99.90
19652;DHT22;9974;52.146;14.668;2022-08-19T20:00:46;21.90;99.90
19652;DHT22;9974;52.146;14.668;2022-08-19T20:08:04;22.10;99.90
19652;DHT22;9974;52.146;14.668;2022-08-19T20:13:14;21.60;99.90
19652;DHT22;9974;52.146;14.668;2022-08-19T20:15:40;21.80;99.90
19652;DHT22;9974;52.146;14.668;2022-08-19T20:18:09;21.60;99.90
19652;DHT22;9974;52.146;14.668;2022-08-19T20:20:35;21.90;99.90
19652;DHT22;9974;52.146;14.668;2022-08-19T20:23:01;21.40;99.90
19652;DHT22;9974;52.146;14.668;2022-08-19T20:25:26;21.80;99.90